Time;durP1;ratioP1;P1;durP2;ratioP2;P2;SDS_P1;SDS_P2;PMS_P1;PMS_P2;Temp;Humidity;BMP_temperature;BMP_pressure;BME280_temperature;BME280_humidity;BME280_pressure;Samples;Min_cycle;Max_cycle;Signal;HPM_P1;HPM_P2
2023/07/12 00:00:45;;;;;;;19.42;12.38;;;;;;;24.08;80.74;100628.03;5034119;28;20082;-90
2023/07/12 00:03:11;;;;;;;23.38;13.70;;;;;;;24.02;81.08;100623.38;4992563;28;20152;-91
2023/07/12 00:05:37;;;;;;;22.85;14.32;;;;;;;24.01;81.11;100619.78;4992691;28;20034;-90
2023/07/12 00:08:04;;;;;;;44.30;15.60;;;;;;;23.97;81.45;100618.53;4953817;28;20033;-93
2023/07/12 00:10:35;;;;;;;22.63;15.75;;;;;;;24.04;81.69;100621.25;4944938;28;20039;-88
2023/07/12 00:13:03;;;;;;;25.55;15.38;;;;;;;24.01;81.76;100621.69;4942675;29;20047;-91
2023/07/12 00:15:30;;;;;;;28.85;18.05;;;;;;;24.01;82.73;100633.53;4958313;28;20086;-90
2023/07/12 00:17:56;;;;;;;27.33;18.52;;;;;;;24.03;83.04;100639.66;4960006;28;20051;-91
2023/07/12 00:20:28;;;;;;;33.22;19.60;;;;;;;24.03;83.00;100636.06;4980862;28;20066;-91
2023/07/12 00:22:54;;;;;;;41.10;21.17;;;;;;;24.01;83.86;100638.16;4967558;28;20035;-91
2023/07/12 00:25:22;;;;;;;32.50;19.55;;;;;;;23.97;84.32;100628.69;4976305;28;20039;-92
2023/07/12 00:27:48;;;;;;;30.58;18.17;;;;;;;23.97;84.79;100634.16;4972592;28;20043;-90
2023/07/12 00:30:19;;;;;;;32.50;20.60;;;;;;;23.96;84.43;100636.06;4972421;28;20427;-90
2023/07/12 00:32:48;;;;;;;32.53;20.77;;;;;;;23.93;84.74;100622.75;4972278;28;20057;-90
2023/07/12 00:35:19;;;;;;;30.00;22.40;;;;;;;23.98;84.31;100633.09;4976751;28;20042;-90
2023/07/12 00:37:45;;;;;;;28.83;22.08;;;;;;;23.88;84.61;100624.44;4963742;28;20078;-90
2023/07/12 00:40:22;;;;;;;33.70;21.38;;;;;;;23.90;85.03;100625.06;4969786;28;20085;-91
2023/07/12 00:42:56;;;;;;;40.60;21.83;;;;;;;23.85;85.33;100640.28;5005229;28;20045;-91
2023/07/12 00:45:22;;;;;;;33.15;20.90;;;;;;;23.63;86.38;100603.09;5045886;28;20063;-91
2023/07/12 00:47:49;;;;;;;36.05;22.05;;;;;;;23.71;86.79;100624.84;5068713;28;20029;-91
2023/07/12 00:50:23;;;;;;;32.33;20.15;;;;;;;23.77;87.28;100643.25;5068653;28;20025;-91
2023/07/12 00:52:50;;;;;;;31.10;21.35;;;;;;;23.68;87.31;100622.53;5041336;28;20042;-91
2023/07/12 00:55:51;;;;;;;36.08;19.92;;;;;;;23.73;87.63;100630.97;5045314;28;20297;-91
2023/07/12 00:58:17;;;;;;;22.10;17.80;;;;;;;23.62;87.48;100623.38;5001208;28;20034;-92
2023/07/12 01:00:42;;;;;;;44.53;22.02;;;;;;;23.67;87.42;100633.72;4999100;28;20038;-91
2023/07/12 01:03:13;;;;;;;36.20;20.17;;;;;;;23.64;87.58;100631.38;4999297;28;20053;-91
2023/07/12 01:05:40;;;;;;;26.83;18.05;;;;;;;23.57;87.89;100625.06;5003567;28;20041;-92
2023/07/12 01:08:06;;;;;;;34.85;17.95;;;;;;;23.56;88.60;100626.09;5007531;28;20132;-92
2023/07/12 01:10:32;;;;;;;28.42;18.55;;;;;;;23.52;89.01;100617.44;5002884;28;20065;-91
2023/07/12 01:12:57;;;;;;;26.60;18.65;;;;;;;23.48;89.61;100618.94;5005096;28;20613;-91
2023/07/12 01:15:24;;;;;;;45.08;19.42;;;;;;;23.57;89.99;100625.91;4978629;28;20457;-91
2023/07/12 01:17:49;;;;;;;29.23;19.63;;;;;;;23.45;89.59;100622.09;4974209;28;20093;-91
2023/07/12 01:20:15;;;;;;;32.72;20.42;;;;;;;23.36;90.36;100617.81;4975446;28;20026;-90
2023/07/12 01:22:41;;;;;;;26.38;18.73;;;;;;;23.49;90.76;100639.81;4997196;28;20046;-91
2023/07/12 01:25:06;;;;;;;27.23;19.13;;;;;;;23.38;91.23;100634.91;5001696;28;20030;-91
2023/07/12 01:27:32;;;;;;;32.45;18.33;;;;;;;23.41;91.56;100642.75;5013165;28;20038;-92
2023/07/12 01:29:57;;;;;;;31.83;19.10;;;;;;;23.36;91.86;100637.03;4996065;28;20036;-90
2023/07/12 01:32:25;;;;;;;32.45;19.40;;;;;;;23.39;91.95;100644.88;5009015;28;20040;-91
2023/07/12 01:34:51;;;;;;;31.52;19.40;;;;;;;23.44;91.81;100645.09;5026267;28;20048;-92
2023/07/12 01:37:17;;;;;;;27.17;18.75;;;;;;;23.41;92.25;100651.00;5050513;28;20033;-92
2023/07/12 01:39:42;;;;;;;37.53;19.48;;;;;;;23.44;91.93;100658.81;5051089;28;20032;-91
2023/07/12 01:42:08;;;;;;;32.95;18.77;;;;;;;23.42;91.50;100658.19;5050651;28;20098;-92
2023/07/12 01:44:33;;;;;;;26.67;19.10;;;;;;;23.37;90.89;100652.44;5050716;28;20036;-91
2023/07/12 01:46:59;;;;;;;30.77;18.02;;;;;;;23.44;90.42;100664.31;5051203;28;20098;-91
2023/07/12 01:49:24;;;;;;;53.40;19.55;;;;;;;23.39;89.82;100661.34;5051945;28;20039;-93
2023/07/12 01:51:50;;;;;;;31.10;19.20;;;;;;;23.37;89.65;100663.41;5033580;28;20481;-91
2023/07/12 01:54:15;;;;;;;30.70;18.33;;;;;;;23.43;89.77;100670.84;5051038;28;20035;-91
2023/07/12 01:56:41;;;;;;;26.65;19.15;;;;;;;23.28;90.63;100662.75;5052395;28;20032;-91
2023/07/12 01:59:06;;;;;;;25.17;18.65;;;;;;;23.31;89.84;100664.22;5050449;28;20382;-92
2023/07/12 02:01:32;;;;;;;31.55;18.63;;;;;;;23.21;89.64;100655.53;5050809;28;20422;-92
2023/07/12 02:03:57;;;;;;;40.08;20.17;;;;;;;23.19;89.80;100649.41;5050804;28;20119;-93
2023/07/12 02:06:23;;;;;;;33.50;22.85;;;;;;;23.14;90.17;100651.94;5050399;28;20087;-93
2023/07/12 02:08:49;;;;;;;38.33;22.48;;;;;;;23.06;88.68;100644.72;5051808;28;20021;-92
2023/07/12 02:11:14;;;;;;;25.45;14.18;;;;;;;23.07;85.55;100649.16;5050559;28;20029;-92
2023/07/12 02:13:40;;;;;;;24.23;14.90;;;;;;;23.11;82.98;100658.69;5050316;28;20032;-91
2023/07/12 02:16:06;;;;;;;26.42;20.00;;;;;;;23.14;84.18;100658.28;5050843;28;20036;-92
2023/07/12 02:18:31;;;;;;;32.47;18.90;;;;;;;23.13;85.94;100652.97;5052793;28;20049;-93
2023/07/12 02:20:56;;;;;;;25.30;18.77;;;;;;;23.11;87.22;100657.84;5046831;28;20033;-92
2023/07/12 02:23:22;;;;;;;25.92;18.17;;;;;;;23.19;87.52;100677.72;5074425;28;20398;-91
2023/07/12 02:25:48;;;;;;;29.33;18.65;;;;;;;23.20;88.08;100678.56;5075518;28;20183;-90
2023/07/12 02:28:13;;;;;;;31.13;17.90;;;;;;;23.18;88.17;100686.13;5062314;28;20428;-91
2023/07/12 02:30:42;;;;;;;42.65;21.25;;;;;;;23.15;88.46;100681.91;5034722;28;20021;-90
2023/07/12 02:33:07;;;;;;;42.13;19.83;;;;;;;23.11;88.35;100666.06;5052607;28;20029;-90
2023/07/12 02:35:33;;;;;;;35.60;21.48;;;;;;;23.14;88.05;100672.00;5034900;28;20471;-92
2023/07/12 02:38:00;;;;;;;100.57;27.63;;;;;;;23.17;87.95;100689.94;5043489;28;20037;-91
2023/07/12 02:40:26;;;;;;;56.85;24.02;;;;;;;23.21;88.15;100700.31;5036641;28;20174;-91
2023/07/12 02:42:53;;;;;;;49.50;21.65;;;;;;;23.09;88.26;100684.63;5035464;28;20074;-90
2023/07/12 02:45:19;;;;;;;37.50;19.67;;;;;;;23.16;88.08;100688.25;5049472;28;20051;-92
2023/07/12 02:47:44;;;;;;;29.52;19.67;;;;;;;23.20;88.28;100706.00;5058321;28;20059;-92
2023/07/12 02:50:10;;;;;;;31.23;19.67;;;;;;;23.20;88.26;100701.38;5058521;28;20021;-92
2023/07/12 02:52:35;;;;;;;30.83;18.38;;;;;;;23.16;87.93;100696.47;5062261;28;20040;-91
2023/07/12 02:55:01;;;;;;;30.65;18.63;;;;;;;23.09;87.28;100696.44;5056273;28;20395;-92
2023/07/12 02:57:27;;;;;;;30.35;16.88;;;;;;;23.15;86.66;100716.72;5035811;28;21076;-91
2023/07/12 02:59:52;;;;;;;28.60;18.05;;;;;;;23.14;86.44;100721.41;5036521;28;20447;-91
2023/07/12 03:02:18;;;;;;;29.83;18.48;;;;;;;23.12;86.63;100737.19;5066312;28;20066;-92
2023/07/12 03:04:44;;;;;;;26.50;17.10;;;;;;;23.19;86.24;100762.78;5058431;28;20029;-91
2023/07/12 03:07:09;;;;;;;40.58;15.02;;;;;;;23.14;84.32;100764.44;5058363;28;20048;-92
2023/07/12 03:09:35;;;;;;;26.00;14.05;;;;;;;23.14;82.81;100761.72;5075796;28;20055;-90
2023/07/12 03:12:00;;;;;;;23.85;13.05;;;;;;;23.22;80.81;100772.50;5059288;28;20024;-89
2023/07/12 03:14:26;;;;;;;26.23;13.52;;;;;;;23.11;79.97;100762.13;5059834;28;20017;-92
2023/07/12 03:16:51;;;;;;;19.17;12.55;;;;;;;23.22;79.14;100786.22;5043464;28;20029;-92
2023/07/12 03:19:17;;;;;;;18.75;12.60;;;;;;;23.14;78.90;100779.03;5035189;28;20049;-91
2023/07/12 03:21:43;;;;;;;13.68;12.07;;;;;;;23.02;79.33;100774.31;5033864;28;20400;-92
2023/07/12 03:24:09;;;;;;;21.77;12.70;;;;;;;23.11;79.46;100793.16;5034069;28;20033;-91
2023/07/12 03:26:36;;;;;;;37.20;14.52;;;;;;;23.17;79.14;100800.56;5043121;28;20029;-91
2023/07/12 03:29:02;;;;;;;34.47;12.85;;;;;;;23.15;78.79;100799.06;5058913;28;20029;-91
2023/07/12 03:31:30;;;;;;;18.08;12.88;;;;;;;23.15;78.99;100791.69;5052164;28;20024;-91
2023/07/12 03:33:58;;;;;;;20.10;13.10;;;;;;;23.18;78.98;100801.38;5032211;28;20029;-91
2023/07/12 03:36:28;;;;;;;33.97;12.68;;;;;;;23.08;79.12;100785.31;5051820;28;20033;-91
2023/07/12 03:38:54;;;;;;;25.05;12.80;;;;;;;23.14;78.60;100787.25;5034197;28;20040;-91
2023/07/12 03:41:20;;;;;;;22.67;12.30;;;;;;;23.30;78.57;100799.81;5044927;28;20029;-91
2023/07/12 03:43:47;;;;;;;36.30;13.40;;;;;;;23.14;78.20;100773.53;5035516;28;20036;-89
2023/07/12 03:46:14;;;;;;;40.05;13.95;;;;;;;23.21;78.35;100773.53;5033422;28;20499;-91
2023/07/12 03:48:40;;;;;;;19.98;12.98;;;;;;;23.46;78.36;100804.97;5052797;28;20031;-90
2023/07/12 03:51:06;;;;;;;15.70;11.75;;;;;;;23.46;77.60;100793.97;5072728;28;20068;-91
2023/07/12 03:53:32;;;;;;;24.10;13.07;;;;;;;23.53;76.83;100816.84;5037308;28;20091;-91
2023/07/12 03:56:02;;;;;;;38.50;14.98;;;;;;;23.49;77.73;100826.50;5036214;28;20037;-92
2023/07/12 03:58:32;;;;;;;56.35;15.23;;;;;;;23.42;77.54;100822.06;5055831;28;20035;-90
2023/07/12 04:01:04;;;;;;;42.15;13.90;;;;;;;23.38;76.43;100824.31;5037850;28;20029;-91
2023/07/12 04:03:30;;;;;;;20.75;12.27;;;;;;;23.37;75.95;100827.25;5036150;28;20091;-91
2023/07/12 04:05:56;;;;;;;19.65;12.20;;;;;;;23.27;75.47;100801.03;5040207;28;20489;-90
2023/07/12 04:08:21;;;;;;;52.92;15.02;;;;;;;23.55;75.16;100842.19;5062078;28;20099;-82
2023/07/12 04:10:51;;;;;;;30.50;14.50;;;;;;;23.49;75.48;100826.50;5050643;28;20036;-82
2023/07/12 04:13:17;;;;;;;62.13;15.02;;;;;;;23.59;74.92;100827.00;5050266;28;20048;-91
2023/07/12 04:15:42;;;;;;;36.10;14.32;;;;;;;23.75;75.33;100842.28;5033460;28;20405;-93
2023/07/12 04:18:08;;;;;;;54.33;21.35;;;;;;;23.71;75.71;100836.34;5052734;28;20057;-91
2023/07/12 04:20:38;;;;;;;44.95;16.42;;;;;;;23.65;75.96;100826.19;5052069;28;20025;-80
2023/07/12 04:23:04;;;;;;;57.65;16.98;;;;;;;23.77;75.73;100835.53;5050263;28;20052;-86
2023/07/12 04:25:29;;;;;;;44.92;14.10;;;;;;;23.92;75.49;100853.72;5050338;28;20036;-87
2023/07/12 04:27:55;;;;;;;69.80;17.98;;;;;;;23.93;74.93;100855.44;5031264;28;20432;-86
2023/07/12 04:30:20;;;;;;;27.10;13.25;;;;;;;23.91;74.52;100841.06;5049735;28;20396;-86
2023/07/12 04:32:47;;;;;;;41.40;13.05;;;;;;;23.93;74.51;100841.69;5048873;28;20105;-87
2023/07/12 04:35:14;;;;;;;26.42;12.55;;;;;;;23.96;74.19;100847.63;5048669;28;20424;-83
2023/07/12 04:37:48;;;;;;;31.23;12.85;;;;;;;24.10;73.91;100873.25;5048180;28;20045;-84
2023/07/12 04:40:14;;;;;;;35.80;13.18;;;;;;;24.12;73.95;100871.19;5049393;28;20082;-86
2023/07/12 04:42:40;;;;;;;39.38;12.35;;;;;;;24.18;73.81;100867.59;5049697;28;20509;-90
2023/07/12 04:45:07;;;;;;;49.83;15.50;;;;;;;24.23;73.48;100871.41;5050632;28;20036;-85
2023/07/12 04:47:33;;;;;;;54.55;14.60;;;;;;;24.40;72.84;100874.66;5031971;28;20397;-84
2023/07/12 04:49:58;;;;;;;21.02;11.27;;;;;;;24.46;72.33;100871.06;5054946;28;20025;-88
2023/07/12 04:52:24;;;;;;;24.15;11.13;;;;;;;24.51;70.56;100865.75;5056738;28;20472;-87
2023/07/12 04:54:57;;;;;;;59.40;14.07;;;;;;;24.59;69.43;100879.31;5058523;28;20545;-83
2023/07/12 04:57:23;;;;;;;33.13;11.70;;;;;;;24.60;69.15;100875.50;5077263;28;20021;-88
2023/07/12 04:59:48;;;;;;;34.17;12.13;;;;;;;24.66;69.33;100869.16;5076077;28;20442;-84
2023/07/12 05:02:14;;;;;;;27.27;9.90;;;;;;;24.73;67.04;100883.78;5071826;28;20043;-84
2023/07/12 05:04:39;;;;;;;36.58;12.07;;;;;;;24.75;68.07;100884.41;5072332;28;20025;-84
2023/07/12 05:07:09;;;;;;;20.88;10.30;;;;;;;24.83;67.64;100900.72;5072083;28;20029;-86
2023/07/12 05:09:38;;;;;;;17.65;10.98;;;;;;;24.78;67.41;100889.47;5074252;28;20054;-85
2023/07/12 05:12:07;;;;;;;55.50;12.60;;;;;;;24.68;67.25;100867.03;5075046;28;20139;-84
2023/07/12 05:14:33;;;;;;;66.18;13.75;;;;;;;24.69;66.82;100874.25;5074194;28;20033;-86
2023/07/12 05:16:58;;;;;;;22.52;9.68;;;;;;;24.92;65.93;100904.97;5060124;28;20102;-90
2023/07/12 05:19:24;;;;;;;17.55;8.75;;;;;;;24.95;64.66;100905.63;5076269;28;20056;-83
2023/07/12 05:21:49;;;;;;;21.25;9.35;;;;;;;24.90;64.02;100896.09;5088250;28;20657;-84
2023/07/12 05:24:17;;;;;;;17.13;10.10;;;;;;;24.90;64.14;100879.56;5083078;28;20036;-85
2023/07/12 05:26:42;;;;;;;28.52;9.80;;;;;;;25.16;64.06;100900.75;5076196;28;20089;-88
2023/07/12 05:29:11;;;;;;;36.38;8.90;;;;;;;25.21;61.43;100911.09;5071393;28;20025;-77
2023/07/12 05:31:37;;;;;;;27.42;8.68;;;;;;;25.25;59.70;100901.38;5071598;28;20463;-76
2023/07/12 05:34:02;;;;;;;48.10;9.40;;;;;;;25.36;59.59;100903.44;5072887;28;20052;-77
2023/07/12 05:36:28;;;;;;;36.80;7.78;;;;;;;25.39;57.53;100898.38;5074330;28;20460;-92
2023/07/12 05:38:54;;;;;;;43.17;9.52;;;;;;;25.47;57.12;100908.31;5054059;28;20465;-79
2023/07/12 05:41:20;;;;;;;31.05;6.68;;;;;;;25.36;54.77;100881.41;5072873;28;20107;-78
2023/07/12 05:43:46;;;;;;;40.13;8.73;;;;;;;25.64;57.87;100912.34;5073059;28;20515;-77
2023/07/12 05:46:11;;;;;;;29.33;11.88;;;;;;;25.64;60.60;100912.34;5072261;28;20077;-83
2023/07/12 05:48:37;;;;;;;31.30;12.90;;;;;;;25.58;62.29;100873.78;5074421;28;20029;-89
2023/07/12 05:51:04;;;;;;;56.08;12.07;;;;;;;25.65;60.90;100878.22;5074646;28;20495;-82
2023/07/12 05:53:29;;;;;;;24.45;10.85;;;;;;;25.81;61.58;100891.50;5056137;28;20028;-85
2023/07/12 05:55:56;;;;;;;55.75;12.80;;;;;;;25.85;61.00;100900.19;5072250;28;20817;-86
2023/07/12 05:58:22;;;;;;;21.35;9.02;;;;;;;25.90;60.00;100890.19;5071331;28;20575;-80
2023/07/12 06:00:47;;;;;;;19.30;8.45;;;;;;;25.89;57.97;100883.00;5068728;28;20103;-82
2023/07/12 06:03:13;;;;;;;15.38;9.00;;;;;;;26.08;58.07;100905.19;5068748;28;20064;-79
2023/07/12 06:05:44;;;;;;;21.75;8.85;;;;;;;26.19;57.93;100910.03;5068559;28;20450;-79
2023/07/12 06:08:10;;;;;;;16.60;9.20;;;;;;;26.23;58.59;100911.28;5068236;28;20416;-80
2023/07/12 06:10:35;;;;;;;37.33;11.88;;;;;;;26.21;58.26;100916.16;5032874;28;20047;-80
2023/07/12 06:13:01;;;;;;;30.15;9.05;;;;;;;26.32;58.00;100921.00;5068544;28;20032;-81
2023/07/12 06:15:27;;;;;;;27.92;10.18;;;;;;;26.21;58.14;100908.72;5068619;28;20028;-80
2023/07/12 06:17:53;;;;;;;26.95;10.82;;;;;;;26.34;58.25;100921.63;5068335;28;20132;-79
2023/07/12 06:20:18;;;;;;;16.13;8.88;;;;;;;26.41;57.26;100916.91;5068170;28;20104;-79
2023/07/12 06:22:44;;;;;;;25.20;10.35;;;;;;;26.49;57.41;100922.16;5068545;28;20033;-78
2023/07/12 06:25:10;;;;;;;19.30;11.38;;;;;;;26.47;58.17;100903.09;5068076;28;20074;-82
2023/07/12 06:27:35;;;;;;;28.67;10.65;;;;;;;26.62;57.72;100919.31;5045476;28;20075;-80
2023/07/12 06:30:01;;;;;;;22.45;10.05;;;;;;;26.73;57.78;100907.56;5045295;28;20071;-82
2023/07/12 06:32:26;;;;;;;22.80;9.15;;;;;;;26.74;56.30;100914.78;5045484;28;20119;-82
2023/07/12 06:34:52;;;;;;;35.15;9.60;;;;;;;26.75;55.55;100913.72;5045577;28;20052;-80
2023/07/12 06:37:17;;;;;;;29.13;8.63;;;;;;;26.70;55.34;100908.00;5045219;28;20052;-84
2023/07/12 06:39:43;;;;;;;18.25;7.45;;;;;;;26.63;54.67;100937.59;5045094;28;20032;-78
2023/07/12 06:42:08;;;;;;;21.50;8.13;;;;;;;26.39;54.40;100910.78;5045302;28;20037;-81
2023/07/12 06:44:34;;;;;;;14.52;7.10;;;;;;;26.45;55.54;100920.94;5045187;28;20067;-80
2023/07/12 06:46:59;;;;;;;16.30;6.05;;;;;;;26.42;56.46;100913.09;5045546;28;20335;-78
2023/07/12 06:49:24;;;;;;;20.92;7.97;;;;;;;26.47;56.13;100916.88;5045288;28;20036;-76
2023/07/12 06:51:50;;;;;;;9.40;4.82;;;;;;;26.52;55.97;100927.22;5044745;28;20075;-78
2023/07/12 06:54:16;;;;;;;15.05;6.15;;;;;;;26.48;55.38;100926.00;5045259;28;20041;-79
2023/07/12 06:56:43;;;;;;;15.82;8.32;;;;;;;26.53;55.96;100928.94;5044673;28;20037;-79
2023/07/12 06:59:09;;;;;;;25.50;6.65;;;;;;;26.36;56.13;100917.56;5061183;28;20157;-78
2023/07/12 07:01:35;;;;;;;10.20;4.95;;;;;;;26.30;55.84;100906.56;5067531;28;20034;-80
2023/07/12 07:04:00;;;;;;;13.73;5.32;;;;;;;26.50;56.28;100923.88;5067910;28;20032;-78
2023/07/12 07:06:26;;;;;;;21.52;6.13;;;;;;;26.51;56.54;100931.91;5068668;28;20457;-78
2023/07/12 07:08:51;;;;;;;28.10;6.63;;;;;;;26.41;57.10;100892.09;5068734;28;20484;-82
2023/07/12 07:11:17;;;;;;;16.30;5.95;;;;;;;26.61;56.57;100925.91;5068465;28;20043;-78
2023/07/12 07:13:43;;;;;;;15.50;5.38;;;;;;;26.58;56.55;100926.34;5068618;28;20032;-79
2023/07/12 07:16:10;;;;;;;15.30;6.13;;;;;;;26.62;55.82;100922.09;5068782;28;20186;-79
2023/07/12 07:18:36;;;;;;;22.90;6.07;;;;;;;26.60;55.87;100910.44;5051617;28;20052;-80
2023/07/12 07:21:03;;;;;;;11.85;5.80;;;;;;;26.72;55.69;100925.22;5068649;28;20021;-79
2023/07/12 07:23:29;;;;;;;26.92;8.18;;;;;;;26.61;54.71;100912.09;5069300;28;20035;-77
2023/07/12 07:25:54;;;;;;;17.73;7.47;;;;;;;26.75;54.25;100934.94;5069990;28;20103;-78
2023/07/12 07:28:21;;;;;;;31.83;10.25;;;;;;;26.76;54.86;100918.16;5070931;28;20055;-77
2023/07/12 07:30:54;;;;;;;20.95;8.32;;;;;;;26.86;54.57;100913.03;5076666;28;20013;-79
2023/07/12 07:33:19;;;;;;;24.88;7.47;;;;;;;26.76;55.19;100903.50;5069005;28;20081;-84
2023/07/12 07:35:45;;;;;;;24.27;7.22;;;;;;;26.71;55.74;100912.47;5069182;28;20103;-78
2023/07/12 07:38:10;;;;;;;21.17;6.55;;;;;;;26.79;55.93;100909.44;5069058;28;20027;-79
2023/07/12 07:40:39;;;;;;;19.15;5.95;;;;;;;26.92;55.52;100920.41;5070413;28;20016;-78
2023/07/12 07:43:04;;;;;;;12.32;5.45;;;;;;;26.82;55.35;100905.41;5034320;28;20093;-80
2023/07/12 07:45:30;;;;;;;19.73;5.28;;;;;;;26.91;55.45;100927.00;5071516;28;20076;-80
2023/07/12 07:47:55;;;;;;;12.98;5.88;;;;;;;26.75;54.94;100905.44;5075150;28;20028;-82
2023/07/12 07:50:21;;;;;;;25.75;6.72;;;;;;;26.86;54.66;100924.06;5061281;28;20031;-78
2023/07/12 07:52:46;;;;;;;18.52;6.43;;;;;;;26.78;54.74;100910.50;5071878;28;20425;-78
2023/07/12 07:55:12;;;;;;;19.77;5.90;;;;;;;26.95;54.91;100938.44;5076441;28;20028;-78
2023/07/12 07:57:37;;;;;;;218.20;28.90;;;;;;;27.07;54.05;100935.78;5072817;28;20529;-78
2023/07/12 08:00:07;;;;;;;14.18;5.60;;;;;;;27.01;54.69;100938.38;5071131;28;20025;-79
2023/07/12 08:02:32;;;;;;;12.23;6.07;;;;;;;27.01;54.52;100935.63;5035377;28;20040;-79
2023/07/12 08:04:58;;;;;;;14.20;5.35;;;;;;;26.93;55.19;100911.06;5069187;28;20044;-79
2023/07/12 08:07:23;;;;;;;19.20;6.82;;;;;;;27.19;54.74;100950.56;5069064;28;20024;-79
2023/07/12 08:09:50;;;;;;;8.45;5.95;;;;;;;27.24;54.25;100942.44;5068713;28;20558;-78
2023/07/12 08:12:16;;;;;;;29.15;6.65;;;;;;;27.17;54.43;100936.13;5068604;28;20037;-76
2023/07/12 08:14:42;;;;;;;11.10;5.45;;;;;;;27.11;53.50;100926.00;5068424;28;20017;-77
2023/07/12 08:17:09;;;;;;;16.33;6.15;;;;;;;27.20;54.02;100947.56;5068384;28;20115;-78
2023/07/12 08:19:34;;;;;;;14.70;5.88;;;;;;;27.09;53.74;100964.03;5069114;28;20109;-82
2023/07/12 08:22:00;;;;;;;11.20;5.70;;;;;;;27.15;56.93;100961.22;5067397;28;20680;-77
2023/07/12 08:24:25;;;;;;;11.48;5.97;;;;;;;27.20;58.88;100955.00;5070475;28;20033;-77
2023/07/12 08:26:50;;;;;;;15.85;6.28;;;;;;;26.97;58.19;100950.13;5071944;28;20017;-84
2023/07/12 08:29:16;;;;;;;20.95;6.15;;;;;;;26.93;58.39;100941.44;5072299;28;20033;-80
2023/07/12 08:31:42;;;;;;;11.48;5.90;;;;;;;26.82;59.54;100955.09;5075670;28;20031;-81
2023/07/12 08:34:07;;;;;;;22.05;6.75;;;;;;;26.61;59.92;100936.09;5073839;28;20032;-81
2023/07/12 08:36:33;;;;;;;17.80;6.55;;;;;;;26.69;60.70;100938.59;5073256;28;20056;-76
2023/07/12 08:38:58;;;;;;;17.30;6.35;;;;;;;26.68;61.69;100936.91;5073082;28;20028;-78
2023/07/12 08:41:26;;;;;;;8.65;5.88;;;;;;;26.69;61.92;100944.97;5073060;28;20042;-79
2023/07/12 08:43:52;;;;;;;15.57;6.35;;;;;;;26.78;61.77;100946.41;5072310;28;20032;-81
2023/07/12 08:46:23;;;;;;;18.80;7.50;;;;;;;26.88;61.28;100949.53;5070794;28;20032;-81
2023/07/12 08:48:54;;;;;;;45.38;9.65;;;;;;;26.89;61.82;100945.69;5071255;28;20107;-78
2023/07/12 08:51:27;;;;;;;32.50;8.55;;;;;;;27.00;59.98;100950.50;5071861;28;20514;-82
2023/07/12 08:53:53;;;;;;;22.17;6.70;;;;;;;27.09;59.50;100942.81;5074290;28;20041;-80
2023/07/12 08:56:19;;;;;;;22.58;8.35;;;;;;;27.08;60.94;100943.00;5074058;28;20032;-81
2023/07/12 08:58:49;;;;;;;18.65;5.68;;;;;;;27.07;61.55;100947.69;5071531;28;20441;-80
2023/07/12 09:01:32;;;;;;;21.55;6.45;;;;;;;27.22;61.95;100961.16;5072910;28;20032;-85
2023/07/12 09:03:58;;;;;;;26.13;7.70;;;;;;;27.32;61.06;100950.44;5071099;28;20392;-78
2023/07/12 09:06:24;;;;;;;7.65;5.40;;;;;;;27.28;61.79;100955.56;5071295;28;20028;-79
2023/07/12 09:08:53;;;;;;;16.52;6.63;;;;;;;27.16;62.45;100951.00;5035542;28;20033;-79
2023/07/12 09:11:27;;;;;;;31.40;8.65;;;;;;;27.19;62.88;100953.31;5071791;28;20032;-79
2023/07/12 09:13:54;;;;;;;25.20;7.57;;;;;;;27.15;63.46;100952.09;5071868;28;20020;-77
2023/07/12 09:16:28;;;;;;;23.33;6.32;;;;;;;27.23;62.60;100954.56;5071514;28;20059;-79
2023/07/12 09:18:56;;;;;;;12.25;6.80;;;;;;;27.18;63.06;100965.44;5071216;28;20110;-79
2023/07/12 09:21:28;;;;;;;14.95;6.72;;;;;;;27.35;63.04;100961.91;5071970;28;20035;-80
2023/07/12 09:24:00;;;;;;;19.10;6.32;;;;;;;27.31;61.20;100966.16;5071022;28;20032;-79
2023/07/12 09:26:28;;;;;;;24.60;7.60;;;;;;;27.24;63.01;100962.63;5071209;28;20033;-79
2023/07/12 09:29:03;;;;;;;21.63;6.93;;;;;;;27.25;63.09;100966.22;5056189;28;20029;-81
2023/07/12 09:31:30;;;;;;;28.25;8.13;;;;;;;27.27;62.94;100964.09;5050834;28;20025;-79
2023/07/12 09:34:00;;;;;;;14.30;6.30;;;;;;;27.36;61.81;100963.59;5031176;28;20106;-78
2023/07/12 09:36:26;;;;;;;37.05;10.27;;;;;;;27.51;61.55;100966.03;5050161;28;20031;-83
2023/07/12 09:38:52;;;;;;;12.40;5.35;;;;;;;27.64;61.69;100956.78;5050773;28;20044;-78
2023/07/12 09:41:22;;;;;;;39.40;8.23;;;;;;;27.76;61.79;100966.00;5050784;28;20021;-77
2023/07/12 09:43:59;;;;;;;10.80;6.05;;;;;;;27.65;60.26;100959.28;5051472;28;20036;-78
2023/07/12 09:46:34;;;;;;;25.88;8.20;;;;;;;27.64;61.62;100940.19;5051697;28;20025;-80
2023/07/12 09:49:04;;;;;;;23.77;6.68;;;;;;;27.84;60.65;100949.94;5050977;28;20028;-80
2023/07/12 09:51:37;;;;;;;18.05;6.22;;;;;;;27.94;60.92;100955.78;5050874;28;20056;-80
2023/07/12 09:54:15;;;;;;;9.85;6.65;;;;;;;27.79;60.29;100930.44;5051102;28;20036;-78
2023/07/12 09:56:51;;;;;;;18.27;7.82;;;;;;;27.86;61.07;100964.38;5051166;28;20028;-83
2023/07/12 09:59:56;;;;;;;13.73;6.63;;;;;;;27.99;60.71;100953.16;5051133;28;20025;-80
2023/07/12 10:02:28;;;;;;;43.20;8.45;;;;;;;27.96;61.05;100964.69;4989985;28;20063;-80
2023/07/12 10:04:59;;;;;;;13.70;6.03;;;;;;;27.76;62.00;100955.78;5002727;28;20038;-82
2023/07/12 10:07:45;;;;;;;23.73;6.70;;;;;;;27.42;62.84;100939.72;4991980;28;20053;-78
2023/07/12 10:10:45;;;;;;;17.92;6.45;;;;;;;27.34;63.53;100956.56;4988506;28;20506;-80
2023/07/12 10:13:40;;;;;;;15.32;6.53;;;;;;;27.25;64.46;100958.78;4948106;28;20155;-81
2023/07/12 10:16:13;;;;;;;23.48;7.90;;;;;;;26.88;65.57;100952.28;4988327;28;20038;-81
2023/07/12 10:18:40;;;;;;;18.30;7.03;;;;;;;26.98;65.77;100944.34;4988382;28;20061;-79
2023/07/12 10:21:08;;;;;;;13.90;5.72;;;;;;;27.05;62.79;100930.50;4988282;28;20030;-78
2023/07/12 10:23:43;;;;;;;13.98;6.65;;;;;;;27.33;62.78;100954.91;4989807;28;20030;-80
2023/07/12 10:26:13;;;;;;;14.95;6.13;;;;;;;27.38;61.59;100941.25;4988878;28;20048;-81
2023/07/12 10:28:41;;;;;;;9.35;5.15;;;;;;;27.46;60.10;100946.53;4988894;28;20038;-79
2023/07/12 10:31:40;;;;;;;17.50;6.78;;;;;;;27.72;61.55;100940.72;4990262;28;20026;-80
2023/07/12 10:34:41;;;;;;;16.30;6.28;;;;;;;27.98;62.40;100945.94;4988255;28;20415;-79
2023/07/12 10:37:22;;;;;;;14.98;6.15;;;;;;;28.23;59.84;100953.31;4971307;28;20097;-80
2023/07/12 10:39:49;;;;;;;27.48;6.75;;;;;;;28.24;59.67;100921.81;4997849;28;20034;-79
2023/07/12 10:42:24;;;;;;;13.52;5.60;;;;;;;28.51;59.25;100939.75;5007256;28;21109;-80
2023/07/12 10:44:53;;;;;;;12.45;5.28;;;;;;;28.32;59.27;100938.94;5006985;28;20029;-82
2023/07/12 10:47:20;;;;;;;16.08;7.70;;;;;;;28.41;59.79;100937.53;5006649;28;20050;-80
2023/07/12 10:49:56;;;;;;;17.13;6.07;;;;;;;28.54;59.20;100936.50;5006993;28;20026;-81
2023/07/12 10:52:31;;;;;;;18.83;5.72;;;;;;;28.64;59.35;100931.25;5006941;28;20476;-79
2023/07/12 10:55:02;;;;;;;46.65;10.70;;;;;;;28.72;58.98;100928.19;5007002;28;20521;-81
2023/07/12 10:57:36;;;;;;;15.07;5.55;;;;;;;28.59;58.68;100907.03;5007077;28;20040;-80
2023/07/12 11:00:23;;;;;;;31.27;5.72;;;;;;;28.86;58.02;100910.28;5006674;28;20475;-80
2023/07/12 11:03:11;;;;;;;31.65;6.90;;;;;;;28.87;58.18;100917.50;5007162;28;20037;-83
2023/07/12 11:05:36;;;;;;;20.13;5.75;;;;;;;28.71;57.28;100898.81;5006697;28;20034;-78
2023/07/12 11:08:03;;;;;;;18.30;6.03;;;;;;;28.69;58.17;100909.28;5006228;28;20034;-78
2023/07/12 11:10:35;;;;;;;15.02;5.55;;;;;;;28.75;57.38;100902.78;5017036;28;20456;-85
2023/07/12 11:13:11;;;;;;;17.30;4.75;;;;;;;28.99;56.67;100912.81;5031450;28;20502;-81
2023/07/12 11:15:51;;;;;;;22.08;5.82;;;;;;;28.92;56.11;100914.88;5067729;28;20700;-80